• Join FlightAware (Why Join?)
  • Login
  • US Flag 
01:04AM EDT


 

Airport Tracker/Info


-or-


 

Live Flight TrackerFlight Track Log ✈ THY789 ✈ 13-07-2013 ✈ LLBG / TLV - LTBA / IST

Flight Track Log - Related Links

Times and Time Zones

All times are in EDT time to prevent confusion due to time zone crossing. See the THY789 flight status page for this flight to view local times or setup timezone preferences in your user account.

Time Position Orientation Groundspeed Altitude Reporting Facility
EDT Latitude Longitude Course Direction KTS MPH feet Rate Location/Type
02:37PM 31.9720 34.8570 269° West 183 211 5,100  Level FlightAware
02:37PM 31.9710 34.8360 267° West 183 211 5,100 1,560 Level FlightAware
02:38PM 32.0020 34.7390 291° West 6,900 1,620 Climbing FlightAware
02:41PM 32.1650 34.6442 334° Northwest  Level Estimated
02:42PM 32.2445 34.5979 334° Northwest  Level Estimated
02:43PM 32.3239 34.5514 334° Northwest  Level Estimated
02:44PM 32.4034 34.5049 334° Northwest  Level Estimated
02:45PM 32.4828 34.4583 334° Northwest  Level Estimated
02:45PM 32.1530 34.0140 334° Northwest 392 451 18,100  Level FlightAware
02:46PM 32.1800 33.9550 298° West 391 450 19,000 1,320 Climbing FlightAware
02:46PM 32.2160 33.8810 300° West 400 460 19,700 1,080 Climbing FlightAware
02:47PM 32.2580 33.7930 299° West 407 468 20,600 1,200 Climbing FlightAware
02:48PM 32.2900 33.7250 299° West 411 473 21,400 1,260 Climbing FlightAware
02:48PM 32.3280 33.6440 299° West 416 479 22,200 1,080 Climbing FlightAware
02:49PM 32.3730 33.5510 300° West 427 491 23,000 1,080 Climbing FlightAware
02:50PM 32.4220 33.4930 315° West 434 499 23,700 960 Climbing FlightAware
02:50PM 32.4820 33.4240 316° Northwest 445 512 24,200 780 Climbing FlightAware
02:51PM 32.5190 33.3810 316° Northwest 448 516 24,600 1,020 Climbing FlightAware
02:51PM 32.5760 33.3160 316° Northwest 451 519 25,300 1,140 Climbing FlightAware
02:52PM 32.6330 33.2510 316° Northwest 449 517 26,100 1,020 Climbing FlightAware
02:53PM 32.7030 33.1700 316° Northwest 455 524 26,800 780 Climbing FlightAware
02:53PM 32.7570 33.1070 316° Northwest 461 531 27,200 720 Climbing FlightAware
02:54PM 32.8280 33.0250 316° Northwest 467 537 27,800 720 Climbing FlightAware
02:55PM 32.9130 32.9260 316° Northwest 469 540 28,500 720 Climbing FlightAware
02:56PM 32.9740 32.8550 316° Northwest 473 544 29,000 1,020 Climbing FlightAware
02:57PM 33.0530 32.7630 316° Northwest 461 531 30,100 1,200 Climbing FlightAware
02:57PM 33.1170 32.6880 316° Northwest 460 529 30,900 1,020 Climbing FlightAware
02:58PM 33.1840 32.6100 316° Northwest 458 527 31,600 960 Climbing FlightAware
02:59PM 33.2360 32.5480 315° West 454 522 32,200 960 Climbing FlightAware
02:59PM 33.2950 32.4790 316° Northwest 452 520 32,800 840 Climbing FlightAware
03:00PM 33.3630 32.3990 316° Northwest 451 519 33,400 720 Climbing FlightAware
03:01PM 33.4230 32.3280 315° West 450 518 33,900 420 Climbing FlightAware
03:01PM 33.4810 32.2590 315° West 453 521 34,000 60 Climbing FlightAware
03:02PM 33.5480 32.1790 315° West 451 519 34,000  Level FlightAware
03:03PM 33.6070 32.1090 315° West 451 519 34,000  Level FlightAware
03:04PM 33.6830 32.0190 315° West 451 519 34,000  Level FlightAware
03:04PM 33.7470 31.9420 315° West 451 519 34,000  Level FlightAware
03:05PM 33.8080 31.8680 315° West 451 519 34,000  Level FlightAware
03:06PM 33.8680 31.7960 315° West 451 519 34,000  Level FlightAware
03:06PM 33.9260 31.7260 315° West 451 519 34,000  Level FlightAware
03:07PM 33.9950 31.6440 315° West 445 512 34,000  Level FlightAware
03:08PM 34.0540 31.5720 315° West 445 512 34,000  Level FlightAware
03:09PM 34.1130 31.5000 315° West 445 512 34,000  Level FlightAware
03:09PM 34.1650 31.4380 315° West 444 511 34,000  Level FlightAware
03:10PM 34.2310 31.3560 314° West 445 512 34,000  Level FlightAware
03:11PM 34.3280 31.2380 315° West 444 511 34,000  Level FlightAware
03:12PM 34.3960 31.1560 315° West 442 509 34,000  Level FlightAware
03:12PM 34.4530 31.0860 315° West 448 516 34,000  Level FlightAware
03:13PM 34.5280 31.0120 321° Northwest 453 521 34,000  Level FlightAware
03:14PM 34.5970 30.9610 329° Northwest 457 526 34,000  Level FlightAware
03:15PM 34.6760 30.9200 337° Northwest 462 532 34,000  Level FlightAware
03:15PM 34.7740 30.8890 345° North 469 540 34,000  Level FlightAware
03:16PM 34.8700 30.8830 357° North 467 537 34,000  Level FlightAware
03:17PM 34.9580 30.8780 357° North 467 537 34,000  Level FlightAware
03:17PM 35.0440 30.8740 358° North 468 539 34,000  Level FlightAware
03:18PM 35.1390 30.8690 358° North 469 540 34,000  Level FlightAware
03:19PM 35.2400 30.8640 358° North 469 540 34,000  Level FlightAware
03:19PM 35.3270 30.8600 358° North 470 541 34,000  Level FlightAware
03:20PM 35.4180 30.8560 358° North 470 541 34,000  Level FlightAware
03:21PM 35.5170 30.8510 358° North 469 540 34,000  Level FlightAware
03:22PM 35.5980 30.8470 358° North 469 540 34,000  Level FlightAware
03:22PM 35.6850 30.8420 357° North 468 539 34,000  Level FlightAware
03:23PM 35.7720 30.8380 358° North 467 537 34,000  Level FlightAware
03:24PM 35.8640 30.8330 357° North 467 537 34,000  Level FlightAware
03:24PM 35.9440 30.8290 358° North 467 537 34,000  Level FlightAware
03:25PM 36.0430 30.8240 358° North 468 539 34,000  Level FlightAware
03:26PM 36.1280 30.8210 358° North 479 551 34,000  Level FlightAware
03:26PM 36.2190 30.8190 359° North 480 552 34,000  Level FlightAware
03:27PM 36.3240 30.8150 358° North 483 556 34,000  Level FlightAware
03:28PM 36.3970 30.8130 359° North 484 557 34,000  Level FlightAware
03:28PM 36.4950 30.8090 358° North 485 558 34,000  Level FlightAware
03:29PM 36.6030 30.8060 359° North 484 557 34,000  Level FlightAware
03:30PM 36.7050 30.8020 358° North 484 557 34,000  Level FlightAware
03:30PM 36.7860 30.7990 358° North 484 557 34,000  Level FlightAware
03:31PM 36.8850 30.7960 359° North 485 558 34,000  Level FlightAware
03:32PM 36.9740 30.7880 356° North 481 554 34,000  Level FlightAware
03:32PM 37.0600 30.7770 354° North 482 555 34,000  Level FlightAware
03:33PM 37.1620 30.7650 355° North 484 557 34,000  Level FlightAware
03:34PM 37.2500 30.7540 354° North 484 557 34,000  Level FlightAware
03:35PM 37.3370 30.7240 345° North 467 537 34,000  Level FlightAware
03:35PM 37.4260 30.6830 340° North 459 528 34,000  Level FlightAware
03:36PM 37.5190 30.6420 341° North 464 534 34,000  Level FlightAware
03:37PM 37.5980 30.6060 340° North 461 531 34,000  Level FlightAware
03:37PM 37.6900 30.5650 341° North 458 527 34,000  Level FlightAware
03:38PM 37.7630 30.5320 340° North 449 517 34,000  Level FlightAware
03:39PM 37.8640 30.4850 340° North 448 516 34,000  Level FlightAware
03:40PM 37.9540 30.4450 341° North 452 520 34,000  Level FlightAware
03:40PM 38.0320 30.4100 341° North 453 521 34,000  Level FlightAware
03:41PM 38.1300 30.3650 340° North 34,000  Level FlightAware
03:42PM 38.2130 30.3270 340° North 459 528 34,000  Level FlightAware
03:43PM 38.2840 30.2950 341° North 459 528 34,000  Level FlightAware
03:43PM 38.3840 30.2480 340° North 465 535 34,000  Level FlightAware
03:44PM 38.4480 30.2190 340° North 465 535 34,000  Level FlightAware
03:45PM 38.5300 30.1800 340° North 465 535 34,000  Level FlightAware
03:45PM 38.5920 30.1520 341° North 465 535 34,000  Level FlightAware
03:46PM 38.6750 30.1130 340° North 465 535 34,000  Level FlightAware
03:47PM 38.8450 30.0330 340° North 466 536 34,000  Level FlightAware
03:48PM 38.9400 29.9900 341° North 466 536 34,000  Level FlightAware
03:49PM 39.0150 29.9540 340° North 465 535 34,000 -240 Level FlightAware
03:49PM 39.1140 29.9080 340° North 464 534 33,700 -660 Descending FlightAware
03:50PM 39.1980 29.8690 340° North 467 537 33,100 -960 Descending FlightAware
03:51PM 39.2860 29.8280 340° North 460 529 32,400 -720 Descending FlightAware
03:51PM 39.3590 29.7920 339° North 461 531 32,100 -240 Descending FlightAware
03:52PM 39.4200 29.7620 339° North 461 531 32,100 -900 Level FlightAware
03:53PM 39.5040 29.7240 341° North 414 476 31,000 -1,380 Descending FlightAware
03:53PM 39.5780 29.6890 340° North 394 453 30,300 -960 Descending FlightAware
03:54PM 39.6270 29.6650 339° North 391 450 29,900 -1,200 Descending FlightAware
03:55PM 39.7110 29.6250 340° North 383 441 28,700 -1,620 Descending FlightAware
03:55PM 39.7820 29.5910 340° North 377 434 27,500 -1,140 Descending FlightAware
03:56PM 39.8350 29.5650 339° North 376 433 27,200 -1,680 Descending FlightAware
03:57PM 39.9100 29.5290 340° North 363 418 25,300 -2,100 Descending FlightAware
03:57PM 39.9740 29.4980 340° North 360 414 24,400 -1,020 Descending FlightAware
03:58PM 40.0320 29.4700 340° North 330 380 24,000 -780 Descending FlightAware
03:59PM 40.0870 29.4440 340° North 323 372 23,400 -1,020 Descending FlightAware
03:59PM 40.1530 29.4110 339° North 326 375 22,600 -1,260 Descending FlightAware
04:00PM 40.2110 29.3830 340° North 310 357 21,700 -1,200 Descending FlightAware
04:01PM 40.2590 29.3600 340° North 307 353 21,000 -1,380 Descending FlightAware
04:01PM 40.3100 29.3350 340° North 308 354 20,000 -1,500 Descending FlightAware
04:02PM 40.3710 29.2940 333° Northwest 290 334 18,900 -1,380 Descending FlightAware
04:03PM 40.4110 29.2610 328° Northwest 289 333 18,100 -1,440 Descending FlightAware
04:03PM 40.4620 29.2180 327° Northwest 287 330 17,000 -1,440 Descending FlightAware
04:04PM 40.5090 29.1800 328° Northwest 283 326 16,100 -1,200 Descending FlightAware
04:05PM 40.5590 29.1400 329° Northwest 270 311 15,300 -1,080 Descending FlightAware
04:06PM 40.6100 29.1000 329° Northwest 263 303 14,500 -960 Descending FlightAware
04:06PM 40.6560 29.0630 329° Northwest 267 307 13,900 -780 Descending FlightAware
04:07PM 40.7060 29.0240 329° Northwest 267 307 13,400 -1,020 Descending FlightAware
04:08PM 40.7520 28.9860 328° Northwest 264 304 12,400 -1,320 Descending FlightAware
04:09PM 40.7980 28.9490 329° Northwest 269 310 11,500 -1,080 Descending FlightAware
04:09PM 40.8340 28.9210 330° Northwest 252 290 11,000 -780 Descending FlightAware
04:10PM 40.8630 28.8940 325° Northwest 259 298 10,700 -540 Descending FlightAware
04:10PM 40.8680 28.8510 279° West 257 296 10,500 -420 Descending FlightAware
04:10PM 40.8550 28.8240 238° Southwest 262 302 10,400 -600 Descending FlightAware
04:11PM 40.8290 28.7700 238° Southwest 257 296 10,000 -300 Descending FlightAware
04:12PM 40.8020 28.7110 239° Southwest 258 297 10,000  Level FlightAware
04:12PM 40.7780 28.6600 238° Southwest 258 297 10,000  Level FlightAware
04:13PM 40.7560 28.6130 238° Southwest 257 296 10,000  Level FlightAware
04:14PM 40.7280 28.5520 239° Southwest 257 296 10,000  Level FlightAware
04:14PM 40.7090 28.5100 239° Southwest 256 295 10,000 -120 Level FlightAware
04:15PM 40.6870 28.4600 240° Southwest 256 295 9,900 -840 Descending FlightAware
04:16PM 40.6630 28.4120 237° Southwest 255 293 9,000 -1,200 Descending FlightAware
04:16PM 40.6480 28.3790 239° Southwest 252 290 8,800 -660 Descending FlightAware
04:16PM 40.6370 28.3570 237° Southwest 251 289 8,600 -780 Descending FlightAware
04:17PM 40.6220 28.3250 238° Southwest 252 290 8,300 -720 Descending FlightAware
04:17PM 40.6060 28.2900 239° Southwest 256 295 8,000 -780 Descending FlightAware
04:17PM 40.5910 28.2600 237° Southwest 254 292 7,700 -600 Descending FlightAware
04:18PM 40.5630 28.2000 238° Southwest 257 296 7,300 -480 Descending FlightAware
04:18PM 40.5600 28.1830 257° West 251 289 7,300 -240 Level FlightAware
04:19PM 40.5630 28.1620 281° West 237 273 7,200 -420 Descending FlightAware
04:19PM 40.5720 28.1480 310° West 219 252 7,100 -360 Descending FlightAware
04:19PM 40.5900 28.1290 321° Northwest 207 238 7,000 -600 Descending FlightAware
04:20PM 40.6040 28.1150 323° Northwest 203 234 6,700 -1,020 Descending FlightAware
04:20PM 40.6090 28.1120 336° Northwest 207 238 6,600 -900 Descending FlightAware
04:20PM 40.6220 28.1120 360° North 194 223 6,400 -660 Descending FlightAware
04:20PM 40.6460 28.1300 30° Northeast 205 236 6,100 -720 Descending FlightAware
04:21PM 40.6690 28.1760 57° Northeast 213 245 5,600 -780 Descending FlightAware
04:21PM 40.6800 28.1990 58° Northeast 205 236 5,300 -720 Descending FlightAware
04:22PM 40.6980 28.2390 59° Northeast 208 239 4,900 -720 Descending FlightAware
04:22PM 40.7110 28.2650 57° Northeast 203 234 4,600 -600 Descending FlightAware
04:23PM 40.7220 28.2900 60° Northeast 200 230 4,400 -600 Descending FlightAware
04:24PM 40.7460 28.3400 58° Northeast 194 223 3,900 -660 Descending FlightAware
04:24PM 40.7540 28.3570 58° Northeast 192 221 3,800 -480 Descending FlightAware
04:24PM 40.7650 28.3800 58° Northeast 182 209 3,600 -540 Descending FlightAware
04:25PM 40.7780 28.4080 58° Northeast 166 191 3,300 -540 Descending FlightAware
04:25PM 40.7840 28.4210 59° Northeast 166 191 3,200 -360 Descending FlightAware
04:25PM 40.7940 28.4430 59° Northeast 167 192 3,100 -240 Descending FlightAware
04:26PM 40.8050 28.4660 58° Northeast 166 191 3,000 -120 Descending FlightAware
04:26PM 40.8180 28.4920 57° Northeast 167 192 3,000  Level FlightAware
04:27PM 40.8280 28.5140 59° Northeast 167 192 3,000  Level FlightAware
04:27PM 40.8400 28.5400 59° Northeast 167 192 3,000  Level FlightAware
04:28PM 40.8470 28.5550 58° Northeast 168 193 3,000  Level FlightAware
04:28PM 40.8570 28.5770 59° Northeast 168 193 3,000  Level FlightAware
04:28PM 40.8700 28.6040 58° Northeast 169 194 3,000  Level FlightAware
04:29PM 40.8800 28.6260 59° Northeast 170 196 3,000 -120 Level FlightAware
04:29PM 40.8910 28.6490 58° Northeast 169 194 2,900 -720 Descending FlightAware
04:30PM 40.9020 28.6730 59° Northeast 163 188 2,400 -900 Descending FlightAware
04:30PM 40.9140 28.6980 58° Northeast 154 177 2,000 -840 Descending FlightAware
04:31PM 40.9260 28.7250 60° Northeast 152 175 1,600 -780 Descending FlightAware
04:31PM 40.9400 28.7540 57° Northeast 143 165 1,100 -780 Descending FlightAware
04:32PM 40.9480 28.7720 60° Northeast 138 159 800 -780 Descending FlightAware
04:32PM 40.9580 28.7930 58° Northeast 137 158 400 -780 Descending FlightAware
04:33PM 40.9620 28.8020 60° Northeast 138 159 300 -600 Descending FlightAware
04:33PM 40.9740 28.8280 59° Northeast 46 53 -420 Descending FlightAware
04:36PM 40.9769 28.8211 299° West  Level Estimated